sensor_id;sensor_type;location;lat;lon;timestamp;pressure;altitude;pressure_sealevel;temperature;humidity
70971;BME280;58632;51.718;19.446;2022-10-16T00:01:17;99614.31;;;13.58;73.14
70971;BME280;58632;51.718;19.446;2022-10-16T00:03:44;99615.36;;;13.54;73.64
70971;BME280;58632;51.718;19.446;2022-10-16T00:06:11;99614.05;;;13.51;73.47
70971;BME280;58632;51.718;19.446;2022-10-16T00:08:38;99620.04;;;13.50;73.84
70971;BME280;58632;51.718;19.446;2022-10-16T00:11:15;99620.21;;;13.53;73.66
70971;BME280;58632;51.718;19.446;2022-10-16T00:13:42;99629.44;;;13.57;73.51
70971;BME280;58632;51.718;19.446;2022-10-16T00:16:10;99624.27;;;13.57;73.47
70971;BME280;58632;51.718;19.446;2022-10-16T00:18:36;99623.33;;;13.58;73.60
70971;BME280;58632;51.718;19.446;2022-10-16T00:23:30;99622.02;;;13.53;73.21
70971;BME280;58632;51.718;19.446;2022-10-16T00:25:57;99623.27;;;13.45;73.15
70971;BME280;58632;51.718;19.446;2022-10-16T00:28:23;99621.48;;;13.36;72.99
70971;BME280;58632;51.718;19.446;2022-10-16T00:30:49;99620.55;;;13.25;72.80
70971;BME280;58632;51.718;19.446;2022-10-16T00:33:15;99624.81;;;13.18;73.05
70971;BME280;58632;51.718;19.446;2022-10-16T00:35:41;99623.37;;;13.07;73.06
70971;BME280;58632;51.718;19.446;2022-10-16T00:38:07;99622.06;;;12.94;73.25
70971;BME280;58632;51.718;19.446;2022-10-16T00:40:33;99622.84;;;12.84;73.57
70971;BME280;58632;51.718;19.446;2022-10-16T00:42:59;99622.13;;;12.73;73.53
70971;BME280;58632;51.718;19.446;2022-10-16T00:45:25;99623.59;;;12.60;73.77
70971;BME280;58632;51.718;19.446;2022-10-16T00:47:52;99628.65;;;12.55;73.92
70971;BME280;58632;51.718;19.446;2022-10-16T00:50:27;99631.59;;;12.49;73.99
70971;BME280;58632;51.718;19.446;2022-10-16T00:52:55;99626.02;;;12.38;74.14
70971;BME280;58632;51.718;19.446;2022-10-16T00:55:21;99626.87;;;12.27;74.18
70971;BME280;58632;51.718;19.446;2022-10-16T00:57:48;99630.19;;;12.14;74.50
70971;BME280;58632;51.718;19.446;2022-10-16T01:00:15;99633.15;;;11.99;74.85
70971;BME280;58632;51.718;19.446;2022-10-16T01:02:42;99633.81;;;11.90;74.83
70971;BME280;58632;51.718;19.446;2022-10-16T01:05:08;99636.89;;;11.84;75.27
70971;BME280;58632;51.718;19.446;2022-10-16T01:07:58;99642.15;;;11.79;75.51
70971;BME280;58632;51.718;19.446;2022-10-16T01:13:30;99653.34;;;11.66;75.87
70971;BME280;58632;51.718;19.446;2022-10-16T01:16:06;99650.83;;;11.60;75.78
70971;BME280;58632;51.718;19.446;2022-10-16T01:18:40;99648.45;;;11.57;75.81
70971;BME280;58632;51.718;19.446;2022-10-16T01:21:35;99647.09;;;11.52;76.07
70971;BME280;58632;51.718;19.446;2022-10-16T01:24:19;99649.17;;;11.45;76.27
70971;BME280;58632;51.718;19.446;2022-10-16T01:27:12;99649.62;;;11.33;76.34
70971;BME280;58632;51.718;19.446;2022-10-16T01:29:45;99649.10;;;11.20;76.61
70971;BME280;58632;51.718;19.446;2022-10-16T01:32:34;99644.21;;;11.12;76.82
70971;BME280;58632;51.718;19.446;2022-10-16T01:35:05;99642.35;;;11.10;76.84
70971;BME280;58632;51.718;19.446;2022-10-16T01:37:56;99642.90;;;11.07;76.78
70971;BME280;58632;51.718;19.446;2022-10-16T01:40:26;99640.83;;;10.98;76.86
70971;BME280;58632;51.718;19.446;2022-10-16T01:42:59;99640.54;;;10.91;77.08
70971;BME280;58632;51.718;19.446;2022-10-16T01:45:27;99642.48;;;10.85;77.37
70971;BME280;58632;51.718;19.446;2022-10-16T01:47:53;99643.21;;;10.82;77.35
70971;BME280;58632;51.718;19.446;2022-10-16T01:50:20;99642.66;;;10.82;77.27
70971;BME280;58632;51.718;19.446;2022-10-16T01:52:49;99646.16;;;10.79;77.61
70971;BME280;58632;51.718;19.446;2022-10-16T01:55:24;99651.39;;;10.73;77.51
70971;BME280;58632;51.718;19.446;2022-10-16T01:57:53;99656.48;;;10.70;78.01
70971;BME280;58632;51.718;19.446;2022-10-16T02:00:21;99656.26;;;10.69;78.33
70971;BME280;58632;51.718;19.446;2022-10-16T02:02:50;99661.59;;;10.67;78.20
70971;BME280;58632;51.718;19.446;2022-10-16T02:05:34;99662.38;;;10.69;77.94
70971;BME280;58632;51.718;19.446;2022-10-16T02:08:02;99663.19;;;10.68;77.88
70971;BME280;58632;51.718;19.446;2022-10-16T02:10:28;99665.61;;;10.62;78.04
70971;BME280;58632;51.718;19.446;2022-10-16T02:13:10;99668.27;;;10.58;78.27
70971;BME280;58632;51.718;19.446;2022-10-16T02:15:36;99670.40;;;10.55;78.51
70971;BME280;58632;51.718;19.446;2022-10-16T02:18:05;99669.04;;;10.56;78.19
70971;BME280;58632;51.718;19.446;2022-10-16T02:20:36;99669.27;;;10.56;78.47
70971;BME280;58632;51.718;19.446;2022-10-16T02:23:09;99673.55;;;10.52;79.03
70971;BME280;58632;51.718;19.446;2022-10-16T02:25:40;99679.48;;;10.49;78.53
70971;BME280;58632;51.718;19.446;2022-10-16T02:28:19;99677.77;;;10.43;78.77
70971;BME280;58632;51.718;19.446;2022-10-16T02:30:56;99676.54;;;10.38;78.68
70971;BME280;58632;51.718;19.446;2022-10-16T02:33:23;99678.40;;;10.36;78.81
70971;BME280;58632;51.718;19.446;2022-10-16T02:35:50;99680.02;;;10.33;78.49
70971;BME280;58632;51.718;19.446;2022-10-16T02:38:17;99682.48;;;10.30;78.48
70971;BME280;58632;51.718;19.446;2022-10-16T02:40:44;99683.59;;;10.25;78.67
70971;BME280;58632;51.718;19.446;2022-10-16T02:43:11;99686.86;;;10.20;78.47
70971;BME280;58632;51.718;19.446;2022-10-16T02:45:37;99688.00;;;10.15;78.64
70971;BME280;58632;51.718;19.446;2022-10-16T02:48:03;99687.74;;;10.15;78.53
70971;BME280;58632;51.718;19.446;2022-10-16T02:50:28;99685.75;;;10.12;78.24
70971;BME280;58632;51.718;19.446;2022-10-16T02:52:54;99684.64;;;10.07;78.70
70971;BME280;58632;51.718;19.446;2022-10-16T02:55:21;99688.33;;;10.05;78.79
70971;BME280;58632;51.718;19.446;2022-10-16T02:57:47;99685.58;;;10.02;78.93
70971;BME280;58632;51.718;19.446;2022-10-16T03:00:14;99689.52;;;10.00;79.21
70971;BME280;58632;51.718;19.446;2022-10-16T03:02:41;99688.09;;;10.04;79.32
70971;BME280;58632;51.718;19.446;2022-10-16T03:05:07;99694.20;;;10.08;79.47
70971;BME280;58632;51.718;19.446;2022-10-16T03:07:33;99694.83;;;10.09;79.52
70971;BME280;58632;51.718;19.446;2022-10-16T03:09:59;99697.43;;;10.10;79.56
70971;BME280;58632;51.718;19.446;2022-10-16T03:12:31;99698.52;;;10.13;80.19
70971;BME280;58632;51.718;19.446;2022-10-16T03:14:57;99697.05;;;10.16;79.99
70971;BME280;58632;51.718;19.446;2022-10-16T03:17:24;99701.85;;;10.21;79.40
70971;BME280;58632;51.718;19.446;2022-10-16T03:19:49;99702.45;;;10.29;79.99
70971;BME280;58632;51.718;19.446;2022-10-16T03:22:15;99705.10;;;10.32;80.54
70971;BME280;58632;51.718;19.446;2022-10-16T03:24:41;99709.86;;;10.39;80.79
70971;BME280;58632;51.718;19.446;2022-10-16T03:27:07;99710.50;;;10.48;80.71
70971;BME280;58632;51.718;19.446;2022-10-16T03:29:33;99710.75;;;10.55;80.31
70971;BME280;58632;51.718;19.446;2022-10-16T03:31:59;99713.37;;;10.61;80.30
70971;BME280;58632;51.718;19.446;2022-10-16T03:34:24;99714.94;;;10.65;80.65
70971;BME280;58632;51.718;19.446;2022-10-16T03:36:51;99717.89;;;10.72;80.97
70971;BME280;58632;51.718;19.446;2022-10-16T03:39:17;99718.75;;;10.80;81.18
70971;BME280;58632;51.718;19.446;2022-10-16T03:41:43;99722.16;;;10.85;80.99
70971;BME280;58632;51.718;19.446;2022-10-16T03:44:08;99722.21;;;10.90;81.31
70971;BME280;58632;51.718;19.446;2022-10-16T03:46:34;99716.31;;;11.00;81.34
70971;BME280;58632;51.718;19.446;2022-10-16T03:49:00;99714.63;;;11.09;81.53
70971;BME280;58632;51.718;19.446;2022-10-16T03:51:26;99706.86;;;11.14;81.75
70971;BME280;58632;51.718;19.446;2022-10-16T03:53:52;99709.59;;;11.13;81.92
70971;BME280;58632;51.718;19.446;2022-10-16T03:56:18;99708.98;;;11.18;82.35
70971;BME280;58632;51.718;19.446;2022-10-16T03:58:44;99708.61;;;11.24;82.25
70971;BME280;58632;51.718;19.446;2022-10-16T04:01:10;99703.97;;;11.37;82.12
70971;BME280;58632;51.718;19.446;2022-10-16T04:03:36;99702.15;;;11.50;82.04
70971;BME280;58632;51.718;19.446;2022-10-16T04:06:02;99704.55;;;11.57;81.78
70971;BME280;58632;51.718;19.446;2022-10-16T04:08:28;99706.91;;;11.61;81.85
70971;BME280;58632;51.718;19.446;2022-10-16T04:10:54;99709.46;;;11.70;82.12
70971;BME280;58632;51.718;19.446;2022-10-16T04:13:20;99706.59;;;11.79;82.09
70971;BME280;58632;51.718;19.446;2022-10-16T04:15:45;99706.54;;;11.83;81.68
70971;BME280;58632;51.718;19.446;2022-10-16T04:18:12;99711.90;;;11.94;81.51
70971;BME280;58632;51.718;19.446;2022-10-16T04:20:37;99719.05;;;12.04;81.45
70971;BME280;58632;51.718;19.446;2022-10-16T04:23:04;99720.95;;;12.13;81.23
70971;BME280;58632;51.718;19.446;2022-10-16T04:25:30;99717.57;;;12.19;81.42
70971;BME280;58632;51.718;19.446;2022-10-16T04:27:56;99715.80;;;12.28;81.36
70971;BME280;58632;51.718;19.446;2022-10-16T04:30:23;99721.84;;;12.35;81.02
70971;BME280;58632;51.718;19.446;2022-10-16T04:32:49;99720.88;;;12.42;80.67
70971;BME280;58632;51.718;19.446;2022-10-16T04:35:16;99724.27;;;12.45;80.26
70971;BME280;58632;51.718;19.446;2022-10-16T04:37:42;99723.21;;;12.38;80.53
70971;BME280;58632;51.718;19.446;2022-10-16T04:40:08;99729.86;;;12.29;80.68
70971;BME280;58632;51.718;19.446;2022-10-16T04:42:34;99732.94;;;12.27;81.02
70971;BME280;58632;51.718;19.446;2022-10-16T04:45:00;99737.48;;;12.31;81.05
70971;BME280;58632;51.718;19.446;2022-10-16T04:47:26;99740.61;;;12.39;80.89
70971;BME280;58632;51.718;19.446;2022-10-16T04:49:52;99741.05;;;12.45;80.65
70971;BME280;58632;51.718;19.446;2022-10-16T04:52:17;99746.88;;;12.47;80.91
70971;BME280;58632;51.718;19.446;2022-10-16T04:54:44;99745.75;;;12.47;80.86
70971;BME280;58632;51.718;19.446;2022-10-16T04:57:11;99741.17;;;12.46;80.93
70971;BME280;58632;51.718;19.446;2022-10-16T04:59:37;99734.61;;;12.46;80.87
70971;BME280;58632;51.718;19.446;2022-10-16T05:02:03;99730.65;;;12.55;80.73
70971;BME280;58632;51.718;19.446;2022-10-16T05:04:28;99731.00;;;12.60;80.68
70971;BME280;58632;51.718;19.446;2022-10-16T05:06:54;99725.30;;;12.65;80.74
70971;BME280;58632;51.718;19.446;2022-10-16T05:09:19;99722.02;;;12.63;80.51
70971;BME280;58632;51.718;19.446;2022-10-16T05:11:46;99722.13;;;12.62;80.93
70971;BME280;58632;51.718;19.446;2022-10-16T05:14:12;99724.64;;;12.64;80.84
70971;BME280;58632;51.718;19.446;2022-10-16T05:16:38;99725.14;;;12.72;80.62
70971;BME280;58632;51.718;19.446;2022-10-16T05:19:04;99724.63;;;12.77;80.45
70971;BME280;58632;51.718;19.446;2022-10-16T05:21:30;99727.79;;;12.80;80.56
70971;BME280;58632;51.718;19.446;2022-10-16T05:23:55;99735.98;;;12.85;80.34
70971;BME280;58632;51.718;19.446;2022-10-16T05:26:21;99741.15;;;12.88;80.35
70971;BME280;58632;51.718;19.446;2022-10-16T05:28:48;99737.38;;;12.93;80.41
70971;BME280;58632;51.718;19.446;2022-10-16T05:31:14;99739.56;;;13.04;79.99
70971;BME280;58632;51.718;19.446;2022-10-16T05:33:40;99737.05;;;13.10;79.72
70971;BME280;58632;51.718;19.446;2022-10-16T05:36:08;99735.63;;;13.15;79.88
70971;BME280;58632;51.718;19.446;2022-10-16T05:38:35;99739.34;;;13.21;79.77
70971;BME280;58632;51.718;19.446;2022-10-16T05:41:01;99740.05;;;13.25;79.25
70971;BME280;58632;51.718;19.446;2022-10-16T05:43:28;99745.49;;;13.24;79.42
70971;BME280;58632;51.718;19.446;2022-10-16T05:45:59;99747.52;;;13.27;79.22
70971;BME280;58632;51.718;19.446;2022-10-16T05:48:25;99751.42;;;13.33;79.20
70971;BME280;58632;51.718;19.446;2022-10-16T05:51:02;99752.61;;;13.31;79.07
70971;BME280;58632;51.718;19.446;2022-10-16T05:53:31;99751.02;;;13.28;79.26
70971;BME280;58632;51.718;19.446;2022-10-16T05:55:57;99749.89;;;13.30;79.58
70971;BME280;58632;51.718;19.446;2022-10-16T05:58:24;99759.33;;;13.37;79.36
70971;BME280;58632;51.718;19.446;2022-10-16T06:00:59;99757.61;;;13.49;79.30
70971;BME280;58632;51.718;19.446;2022-10-16T06:03:26;99764.65;;;13.57;78.86
70971;BME280;58632;51.718;19.446;2022-10-16T06:05:52;99760.88;;;13.62;78.93
70971;BME280;58632;51.718;19.446;2022-10-16T06:08:19;99763.35;;;13.65;78.78
70971;BME280;58632;51.718;19.446;2022-10-16T06:10:45;99766.71;;;13.63;78.63
70971;BME280;58632;51.718;19.446;2022-10-16T06:13:12;99772.29;;;13.67;78.72
70971;BME280;58632;51.718;19.446;2022-10-16T06:15:39;99777.83;;;13.75;78.13
70971;BME280;58632;51.718;19.446;2022-10-16T06:18:07;99779.91;;;13.77;78.02
70971;BME280;58632;51.718;19.446;2022-10-16T06:20:32;99782.31;;;13.73;77.89
70971;BME280;58632;51.718;19.446;2022-10-16T06:22:58;99783.65;;;13.71;78.00
70971;BME280;58632;51.718;19.446;2022-10-16T06:25:24;99788.46;;;13.76;78.21
70971;BME280;58632;51.718;19.446;2022-10-16T06:27:50;99790.48;;;13.81;77.84
70971;BME280;58632;51.718;19.446;2022-10-16T06:30:16;99786.57;;;13.86;77.67
70971;BME280;58632;51.718;19.446;2022-10-16T06:32:42;99793.97;;;13.86;77.47
70971;BME280;58632;51.718;19.446;2022-10-16T06:35:08;99797.09;;;13.90;77.64
70971;BME280;58632;51.718;19.446;2022-10-16T06:37:34;99801.44;;;13.98;77.80
70971;BME280;58632;51.718;19.446;2022-10-16T06:40:00;99810.62;;;14.13;77.96
70971;BME280;58632;51.718;19.446;2022-10-16T06:42:25;99816.02;;;14.42;77.89
70971;BME280;58632;51.718;19.446;2022-10-16T06:44:51;99815.62;;;14.81;77.52
70971;BME280;58632;51.718;19.446;2022-10-16T06:47:17;99810.60;;;15.12;76.86
70971;BME280;58632;51.718;19.446;2022-10-16T06:49:43;99811.88;;;15.39;76.65
70971;BME280;58632;51.718;19.446;2022-10-16T06:52:09;99810.45;;;15.57;76.17
70971;BME280;58632;51.718;19.446;2022-10-16T06:54:34;99816.98;;;15.66;75.37
70971;BME280;58632;51.718;19.446;2022-10-16T06:57:00;99821.84;;;15.76;75.08
70971;BME280;58632;51.718;19.446;2022-10-16T06:59:27;99824.55;;;15.86;74.64
70971;BME280;58632;51.718;19.446;2022-10-16T07:01:53;99824.52;;;15.94;74.41
70971;BME280;58632;51.718;19.446;2022-10-16T07:04:18;99834.44;;;16.04;74.01
70971;BME280;58632;51.718;19.446;2022-10-16T07:06:44;99837.58;;;16.03;73.63
70971;BME280;58632;51.718;19.446;2022-10-16T07:09:10;99838.47;;;16.00;73.29
70971;BME280;58632;51.718;19.446;2022-10-16T07:11:38;99847.68;;;16.00;73.00
70971;BME280;58632;51.718;19.446;2022-10-16T07:14:04;99848.85;;;15.89;72.94
70971;BME280;58632;51.718;19.446;2022-10-16T07:16:32;99843.99;;;15.88;73.41
70971;BME280;58632;51.718;19.446;2022-10-16T07:19:00;99841.54;;;15.84;72.78
70971;BME280;58632;51.718;19.446;2022-10-16T07:21:28;99838.45;;;15.78;72.88
70971;BME280;58632;51.718;19.446;2022-10-16T07:23:56;99842.41;;;15.78;73.09
70971;BME280;58632;51.718;19.446;2022-10-16T07:26:24;99835.24;;;15.82;72.79
70971;BME280;58632;51.718;19.446;2022-10-16T07:28:50;99829.84;;;15.80;72.68
70971;BME280;58632;51.718;19.446;2022-10-16T07:31:17;99830.84;;;15.82;72.70
70971;BME280;58632;51.718;19.446;2022-10-16T07:33:44;99829.55;;;15.94;73.05
70971;BME280;58632;51.718;19.446;2022-10-16T07:36:13;99824.68;;;16.28;73.28
70971;BME280;58632;51.718;19.446;2022-10-16T07:38:39;99822.52;;;16.73;72.85
70971;BME280;58632;51.718;19.446;2022-10-16T07:41:07;99815.55;;;17.22;72.07
70971;BME280;58632;51.718;19.446;2022-10-16T07:43:34;99815.20;;;17.59;70.96
70971;BME280;58632;51.718;19.446;2022-10-16T07:46:01;99821.92;;;17.82;70.00
70971;BME280;58632;51.718;19.446;2022-10-16T07:48:28;99825.30;;;17.97;69.53
70971;BME280;58632;51.718;19.446;2022-10-16T07:51:00;99833.30;;;18.18;69.40
70971;BME280;58632;51.718;19.446;2022-10-16T07:53:27;99844.45;;;18.48;69.07
70971;BME280;58632;51.718;19.446;2022-10-16T07:56:00;99847.04;;;18.62;67.34
70971;BME280;58632;51.718;19.446;2022-10-16T07:58:27;99857.05;;;18.59;66.74
70971;BME280;58632;51.718;19.446;2022-10-16T08:00:53;99861.21;;;18.51;66.17
70971;BME280;58632;51.718;19.446;2022-10-16T08:03:18;99863.52;;;18.40;66.22
70971;BME280;58632;51.718;19.446;2022-10-16T08:05:44;99862.37;;;18.34;66.60
70971;BME280;58632;51.718;19.446;2022-10-16T08:08:13;99866.30;;;18.27;65.78
70971;BME280;58632;51.718;19.446;2022-10-16T08:10:39;99860.30;;;18.23;66.38
70971;BME280;58632;51.718;19.446;2022-10-16T08:13:04;99858.88;;;18.28;66.69
70971;BME280;58632;51.718;19.446;2022-10-16T08:15:31;99860.70;;;18.28;66.45
70971;BME280;58632;51.718;19.446;2022-10-16T08:18:02;99865.98;;;18.27;66.36
70971;BME280;58632;51.718;19.446;2022-10-16T08:20:28;99866.39;;;18.33;66.26
70971;BME280;58632;51.718;19.446;2022-10-16T08:22:55;99868.81;;;18.41;66.50
70971;BME280;58632;51.718;19.446;2022-10-16T08:25:21;99873.48;;;18.52;66.17
70971;BME280;58632;51.718;19.446;2022-10-16T08:27:47;99875.58;;;18.59;65.17
70971;BME280;58632;51.718;19.446;2022-10-16T08:30:14;99880.60;;;18.67;65.33
70971;BME280;58632;51.718;19.446;2022-10-16T08:32:40;99883.04;;;18.75;65.32
70971;BME280;58632;51.718;19.446;2022-10-16T08:35:08;99888.69;;;18.77;65.03
70971;BME280;58632;51.718;19.446;2022-10-16T08:37:35;99881.72;;;18.82;65.08
70971;BME280;58632;51.718;19.446;2022-10-16T08:40:01;99883.65;;;18.91;64.89
70971;BME280;58632;51.718;19.446;2022-10-16T08:48:51;99889.30;;;19.22;64.22
70971;BME280;58632;51.718;19.446;2022-10-16T08:50:45;99896.00;;;19.19;63.81
70971;BME280;58632;51.718;19.446;2022-10-16T08:53:28;99901.54;;;19.11;64.03
70971;BME280;58632;51.718;19.446;2022-10-16T08:55:55;99897.42;;;19.07;64.01
70971;BME280;58632;51.718;19.446;2022-10-16T08:58:23;99899.17;;;19.07;63.86
70971;BME280;58632;51.718;19.446;2022-10-16T09:00:57;99896.03;;;19.03;63.92
70971;BME280;58632;51.718;19.446;2022-10-16T09:06:42;99894.65;;;19.01;63.78
70971;BME280;58632;51.718;19.446;2022-10-16T09:09:36;99891.95;;;19.07;63.75
70971;BME280;58632;51.718;19.446;2022-10-16T09:12:27;99879.71;;;19.11;63.93
70971;BME280;58632;51.718;19.446;2022-10-16T09:17:58;99876.02;;;19.39;63.76
70971;BME280;58632;51.718;19.446;2022-10-16T09:21:31;99878.29;;;19.60;63.44
70971;BME280;58632;51.718;19.446;2022-10-16T09:23:37;99881.98;;;19.83;62.99
70971;BME280;58632;51.718;19.446;2022-10-16T09:26:04;99887.85;;;19.93;63.01
70971;BME280;58632;51.718;19.446;2022-10-16T09:28:31;99888.75;;;20.04;62.37
70971;BME280;58632;51.718;19.446;2022-10-16T09:30:57;99884.94;;;20.13;62.09
70971;BME280;58632;51.718;19.446;2022-10-16T09:33:29;99882.54;;;20.11;61.48
70971;BME280;58632;51.718;19.446;2022-10-16T09:35:58;99878.71;;;20.09;61.64
70971;BME280;58632;51.718;19.446;2022-10-16T09:38:35;99882.01;;;20.14;61.48
70971;BME280;58632;51.718;19.446;2022-10-16T09:43:52;99885.33;;;20.30;60.64
70971;BME280;58632;51.718;19.446;2022-10-16T09:46:34;99888.30;;;20.25;60.79
70971;BME280;58632;51.718;19.446;2022-10-16T09:49:03;99889.69;;;20.20;60.64
70971;BME280;58632;51.718;19.446;2022-10-16T09:51:32;99892.67;;;20.17;60.57
70971;BME280;58632;51.718;19.446;2022-10-16T09:54:14;99888.15;;;20.18;60.80
70971;BME280;58632;51.718;19.446;2022-10-16T09:56:40;99893.85;;;20.14;60.38
70971;BME280;58632;51.718;19.446;2022-10-16T09:59:17;99895.96;;;20.01;60.14
70971;BME280;58632;51.718;19.446;2022-10-16T10:01:51;99901.54;;;19.96;60.99
70971;BME280;58632;51.718;19.446;2022-10-16T10:04:22;99895.88;;;20.01;61.44
70971;BME280;58632;51.718;19.446;2022-10-16T10:06:51;99894.61;;;20.19;61.03
70971;BME280;58632;51.718;19.446;2022-10-16T10:09:39;99894.39;;;20.32;60.81
70971;BME280;58632;51.718;19.446;2022-10-16T10:12:19;99890.13;;;20.47;60.51
70971;BME280;58632;51.718;19.446;2022-10-16T10:14:48;99890.87;;;20.59;60.73
70971;BME280;58632;51.718;19.446;2022-10-16T10:22:38;99895.52;;;20.76;59.54
70971;BME280;58632;51.718;19.446;2022-10-16T10:28:16;99897.91;;;20.76;59.04
70971;BME280;58632;51.718;19.446;2022-10-16T10:33:17;99894.13;;;20.59;59.70
70971;BME280;58632;51.718;19.446;2022-10-16T10:49:50;99895.82;;;20.74;59.71
70971;BME280;58632;51.718;19.446;2022-10-16T10:52:31;99896.93;;;20.87;59.06
70971;BME280;58632;51.718;19.446;2022-10-16T11:05:49;99888.81;;;21.18;58.36
70971;BME280;58632;51.718;19.446;2022-10-16T11:08:19;99890.90;;;21.07;58.03
70971;BME280;58632;51.718;19.446;2022-10-16T11:15:56;99880.90;;;20.95;58.33
70971;BME280;58632;51.718;19.446;2022-10-16T11:18:29;99878.06;;;20.98;58.56
70971;BME280;58632;51.718;19.446;2022-10-16T11:21:06;99880.14;;;21.00;58.08
70971;BME280;58632;51.718;19.446;2022-10-16T11:26:27;99883.14;;;20.96;58.27
70971;BME280;58632;51.718;19.446;2022-10-16T11:28:55;99876.77;;;20.95;58.52
70971;BME280;58632;51.718;19.446;2022-10-16T11:36:55;99875.48;;;21.08;58.21
70971;BME280;58632;51.718;19.446;2022-10-16T11:39:27;99872.88;;;21.13;58.01
70971;BME280;58632;51.718;19.446;2022-10-16T11:42:01;99874.11;;;21.22;57.95
70971;BME280;58632;51.718;19.446;2022-10-16T11:47:08;99878.33;;;21.41;57.60
70971;BME280;58632;51.718;19.446;2022-10-16T11:49:37;99883.68;;;21.45;57.78
70971;BME280;58632;51.718;19.446;2022-10-16T11:54:52;99887.91;;;21.46;57.55
70971;BME280;58632;51.718;19.446;2022-10-16T11:57:22;99890.14;;;21.47;57.57
70971;BME280;58632;51.718;19.446;2022-10-16T11:59:55;99892.85;;;21.46;57.60
70971;BME280;58632;51.718;19.446;2022-10-16T12:02:37;99895.45;;;21.42;57.64
70971;BME280;58632;51.718;19.446;2022-10-16T12:05:18;99896.59;;;21.33;57.57
70971;BME280;58632;51.718;19.446;2022-10-16T12:10:29;99902.60;;;21.07;57.71
70971;BME280;58632;51.718;19.446;2022-10-16T12:12:57;99904.16;;;21.03;58.38
70971;BME280;58632;51.718;19.446;2022-10-16T12:15:29;99904.71;;;21.01;58.28
70971;BME280;58632;51.718;19.446;2022-10-16T12:17:56;99900.79;;;20.94;58.52
70971;BME280;58632;51.718;19.446;2022-10-16T12:20:30;99906.52;;;20.93;58.50
70971;BME280;58632;51.718;19.446;2022-10-16T12:23:06;99902.14;;;20.96;58.68
70971;BME280;58632;51.718;19.446;2022-10-16T12:25:37;99904.79;;;21.01;58.75
70971;BME280;58632;51.718;19.446;2022-10-16T12:30:40;99905.74;;;21.00;58.45
70971;BME280;58632;51.718;19.446;2022-10-16T12:33:27;99907.88;;;20.98;58.59
70971;BME280;58632;51.718;19.446;2022-10-16T12:35:54;99903.85;;;21.02;58.66
70971;BME280;58632;51.718;19.446;2022-10-16T12:39:06;99896.80;;;21.10;58.72
70971;BME280;58632;51.718;19.446;2022-10-16T12:41:08;99896.38;;;21.21;58.68
70971;BME280;58632;51.718;19.446;2022-10-16T12:48:33;99897.91;;;21.28;58.09
70971;BME280;58632;51.718;19.446;2022-10-16T12:51:21;99902.27;;;21.24;58.01
70971;BME280;58632;51.718;19.446;2022-10-16T12:53:45;99901.34;;;21.10;57.92
70971;BME280;58632;51.718;19.446;2022-10-16T12:56:24;99902.48;;;20.97;58.11
70971;BME280;58632;51.718;19.446;2022-10-16T12:59:19;99903.79;;;20.91;58.53
70971;BME280;58632;51.718;19.446;2022-10-16T13:07:45;99912.70;;;20.80;58.85
70971;BME280;58632;51.718;19.446;2022-10-16T13:10:36;99915.56;;;20.79;59.00
70971;BME280;58632;51.718;19.446;2022-10-16T13:29:42;99906.38;;;20.71;58.52
70971;BME280;58632;51.718;19.446;2022-10-16T13:32:10;99910.64;;;20.66;58.76
70971;BME280;58632;51.718;19.446;2022-10-16T13:34:48;99915.23;;;20.65;58.84
70971;BME280;58632;51.718;19.446;2022-10-16T13:37:18;99916.42;;;20.65;58.90
70971;BME280;58632;51.718;19.446;2022-10-16T13:39:45;99911.77;;;20.59;58.86
70971;BME280;58632;51.718;19.446;2022-10-16T13:42:30;99909.79;;;20.52;58.96
70971;BME280;58632;51.718;19.446;2022-10-16T13:44:56;99915.99;;;20.43;58.94
70971;BME280;58632;51.718;19.446;2022-10-16T13:47:27;99917.95;;;20.39;59.28
70971;BME280;58632;51.718;19.446;2022-10-16T13:50:11;99920.67;;;20.41;59.31
70971;BME280;58632;51.718;19.446;2022-10-16T13:52:38;99927.08;;;20.47;59.42
70971;BME280;58632;51.718;19.446;2022-10-16T13:55:10;99928.27;;;20.47;59.42
70971;BME280;58632;51.718;19.446;2022-10-16T13:57:36;99931.60;;;20.46;59.31
70971;BME280;58632;51.718;19.446;2022-10-16T14:00:02;99938.70;;;20.39;59.10
70971;BME280;58632;51.718;19.446;2022-10-16T14:02:35;99939.63;;;20.27;58.97
70971;BME280;58632;51.718;19.446;2022-10-16T14:05:04;99942.16;;;20.17;59.42
70971;BME280;58632;51.718;19.446;2022-10-16T14:07:34;99939.30;;;20.08;59.59
70971;BME280;58632;51.718;19.446;2022-10-16T14:10:07;99946.26;;;19.97;59.68
70971;BME280;58632;51.718;19.446;2022-10-16T14:12:44;99951.45;;;19.85;60.22
70971;BME280;58632;51.718;19.446;2022-10-16T14:15:17;99951.30;;;19.78;60.49
70971;BME280;58632;51.718;19.446;2022-10-16T14:17:45;99959.26;;;19.72;60.66
70971;BME280;58632;51.718;19.446;2022-10-16T14:20:15;99963.95;;;19.68;60.83
70971;BME280;58632;51.718;19.446;2022-10-16T14:22:42;99966.96;;;19.62;60.87
70971;BME280;58632;51.718;19.446;2022-10-16T14:25:30;99966.09;;;19.57;60.87
70971;BME280;58632;51.718;19.446;2022-10-16T14:30:35;99968.20;;;19.54;61.09
70971;BME280;58632;51.718;19.446;2022-10-16T14:33:18;99969.75;;;19.49;61.35
70971;BME280;58632;51.718;19.446;2022-10-16T14:35:45;99976.23;;;19.49;61.35
70971;BME280;58632;51.718;19.446;2022-10-16T14:38:19;99976.52;;;19.46;61.74
70971;BME280;58632;51.718;19.446;2022-10-16T14:40:49;99972.17;;;19.40;61.64
70971;BME280;58632;51.718;19.446;2022-10-16T14:43:21;99978.48;;;19.32;61.41
70971;BME280;58632;51.718;19.446;2022-10-16T14:45:53;99982.55;;;19.27;61.76
70971;BME280;58632;51.718;19.446;2022-10-16T14:48:19;99982.00;;;19.22;61.88
70971;BME280;58632;51.718;19.446;2022-10-16T14:50:46;99987.95;;;19.16;62.11
70971;BME280;58632;51.718;19.446;2022-10-16T14:53:12;99986.84;;;19.06;62.10